createdAt,value
2018-09-20T00:01:15.027Z,19.83
2018-09-20T00:03:45.887Z,19.85
2018-09-20T00:06:15.208Z,19.83
2018-09-20T00:08:43.738Z,19.63
2018-09-20T00:11:12.257Z,19.67
2018-09-20T00:13:41.941Z,19.62
2018-09-20T00:16:10.422Z,19.66
2018-09-20T00:18:38.956Z,19.52
2018-09-20T00:21:08.917Z,19.58
2018-09-20T00:23:37.904Z,19.52
2018-09-20T00:26:06.959Z,19.48
2018-09-20T00:28:36.623Z,19.41
2018-09-20T00:31:05.322Z,19.45
2018-09-20T00:33:34.393Z,19.30
2018-09-20T00:36:03.737Z,19.26
2018-09-20T00:38:32.954Z,19.20
2018-09-20T00:41:02.578Z,19.10
2018-09-20T00:43:31.229Z,18.98
2018-09-20T00:46:00.238Z,18.71
2018-09-20T00:48:29.875Z,18.68
2018-09-20T00:50:58.361Z,18.63
2018-09-20T00:53:27.916Z,18.46
2018-09-20T00:55:56.397Z,18.37
2018-09-20T00:58:27.838Z,18.46
2018-09-20T01:00:56.348Z,18.59
2018-09-20T01:03:25.025Z,18.49
2018-09-20T01:05:53.819Z,18.66
2018-09-20T01:08:23.222Z,18.47
2018-09-20T01:10:52.220Z,18.51
2018-09-20T01:13:20.929Z,18.31
2018-09-20T01:15:49.891Z,18.43
2018-09-20T01:18:19.133Z,18.38
2018-09-20T01:20:47.629Z,18.29
2018-09-20T01:23:16.861Z,18.17
2018-09-20T01:25:45.593Z,18.20
2018-09-20T01:28:14.054Z,18.35
2018-09-20T01:30:44.106Z,18.46
2018-09-20T01:33:13.182Z,18.39
2018-09-20T01:35:42.096Z,18.42
2018-09-20T01:38:13.772Z,18.36
2018-09-20T01:40:42.329Z,18.23
2018-09-20T01:43:12.625Z,18.21
2018-09-20T01:45:42.028Z,18.22
2018-09-20T01:48:11.162Z,18.29
2018-09-20T01:50:39.996Z,18.33
2018-09-20T01:53:09.356Z,18.21
2018-09-20T01:55:38.970Z,18.13
2018-09-20T01:58:07.887Z,18.19
2018-09-20T02:00:38.717Z,18.19
2018-09-20T02:03:08.749Z,18.22
2018-09-20T02:05:38.107Z,18.27
2018-09-20T02:08:07.073Z,18.26
2018-09-20T02:10:36.570Z,18.23
2018-09-20T02:13:05.607Z,18.43
2018-09-20T02:15:34.136Z,18.40
2018-09-20T02:18:03.556Z,18.56
2018-09-20T02:20:34.150Z,18.37
2018-09-20T02:23:02.620Z,18.28
2018-09-20T02:25:31.099Z,18.27
2018-09-20T02:28:00.431Z,18.15
2018-09-20T02:30:29.358Z,17.99
2018-09-20T02:32:58.026Z,17.89
2018-09-20T02:35:26.458Z,17.71
2018-09-20T02:37:54.914Z,17.66
2018-09-20T02:40:23.592Z,17.64
2018-09-20T02:42:52.688Z,17.66
2018-09-20T02:45:21.351Z,17.67
2018-09-20T02:47:51.504Z,17.66
2018-09-20T02:50:21.317Z,17.69
2018-09-20T02:52:50.181Z,17.69
2018-09-20T02:55:19.050Z,17.66
2018-09-20T02:57:48.081Z,17.65
2018-09-20T03:00:17.614Z,17.68
2018-09-20T03:02:46.362Z,17.52
2018-09-20T03:05:14.857Z,17.58
2018-09-20T03:07:43.316Z,17.58
2018-09-20T03:10:11.797Z,17.53
2018-09-20T03:12:41.985Z,17.41
2018-09-20T03:15:10.842Z,17.40
2018-09-20T03:17:40.165Z,17.32
2018-09-20T03:20:09.458Z,17.31
2018-09-20T03:22:39.805Z,17.28
2018-09-20T03:25:08.910Z,17.15
2018-09-20T03:27:38.037Z,17.28
2018-09-20T03:30:07.759Z,17.23
2018-09-20T03:32:36.845Z,17.22
2018-09-20T03:35:07.570Z,17.25
2018-09-20T03:37:36.907Z,17.26
2018-09-20T03:40:05.424Z,17.35
2018-09-20T03:42:35.732Z,17.30
2018-09-20T03:45:05.086Z,17.25
2018-09-20T03:47:33.584Z,17.23
2018-09-20T03:50:02.173Z,17.17
2018-09-20T03:52:31.347Z,17.08
2018-09-20T03:55:00.238Z,16.99
2018-09-20T03:57:28.715Z,16.86
2018-09-20T03:59:57.201Z,16.59
2018-09-20T04:02:25.970Z,16.79
2018-09-20T04:04:55.717Z,16.77
2018-09-20T04:07:24.985Z,16.97
2018-09-20T04:09:54.206Z,16.96
2018-09-20T04:12:24.423Z,16.91
2018-09-20T04:14:53.128Z,17.01
2018-09-20T04:17:22.719Z,16.91
2018-09-20T04:19:51.541Z,16.93
2018-09-20T04:22:20.037Z,16.92
2018-09-20T04:24:49.390Z,16.71
2018-09-20T04:27:18.708Z,16.84
2018-09-20T04:29:48.369Z,16.82
2018-09-20T04:32:16.808Z,16.85
2018-09-20T04:34:45.509Z,16.84
2018-09-20T04:37:14.249Z,16.82
2018-09-20T04:39:42.780Z,16.69
2018-09-20T04:42:11.715Z,16.85
2018-09-20T04:44:41.399Z,16.76
2018-09-20T04:47:10.539Z,16.83
2018-09-20T04:49:38.993Z,16.84
2018-09-20T04:52:09.110Z,16.78
2018-09-20T04:54:38.279Z,16.62
2018-09-20T04:57:08.456Z,16.75
2018-09-20T04:59:38.309Z,16.52
2018-09-20T05:02:07.685Z,16.37
2018-09-20T05:04:36.557Z,16.30
2018-09-20T05:07:05.429Z,16.29
2018-09-20T05:09:33.921Z,16.29
2018-09-20T05:12:04.078Z,16.32
2018-09-20T05:14:32.781Z,16.36
2018-09-20T05:17:03.877Z,16.37
2018-09-20T05:19:32.667Z,16.47
2018-09-20T05:22:02.997Z,16.60
2018-09-20T05:24:32.473Z,16.57
2018-09-20T05:27:02.183Z,16.56
2018-09-20T05:29:31.691Z,16.42
2018-09-20T05:32:01.239Z,16.32
2018-09-20T05:34:29.708Z,16.34
2018-09-20T05:36:58.432Z,16.28
2018-09-20T05:39:28.113Z,16.18
2018-09-20T05:41:56.580Z,16.21
2018-09-20T05:44:25.321Z,16.22
2018-09-20T05:46:54.321Z,16.23
2018-09-20T05:49:22.757Z,16.16
2018-09-20T05:51:53.886Z,16.12
2018-09-20T05:54:22.333Z,16.09
2018-09-20T05:56:51.644Z,16.16
2018-09-20T05:59:20.669Z,16.02
2018-09-20T06:01:49.161Z,16.08
2018-09-20T06:04:18.473Z,16.21
2018-09-20T06:06:47.423Z,16.29
2018-09-20T06:09:16.105Z,16.33
2018-09-20T06:11:45.452Z,16.31
2018-09-20T06:14:13.942Z,16.29
2018-09-20T06:16:43.133Z,16.40
2018-09-20T06:19:12.594Z,16.30
2018-09-20T06:21:42.507Z,16.28
2018-09-20T06:24:10.980Z,16.11
2018-09-20T06:26:40.745Z,16.13
2018-09-20T06:29:09.908Z,16.03
2018-09-20T06:31:38.403Z,16.00
2018-09-20T06:34:08.457Z,16.11
2018-09-20T06:36:39.683Z,16.00
2018-09-20T06:39:12.346Z,16.05
2018-09-20T06:41:41.653Z,16.22
2018-09-20T06:44:10.539Z,16.33
2018-09-20T06:46:39.126Z,16.24
2018-09-20T06:49:08.802Z,16.38
2018-09-20T06:51:38.341Z,16.58
2018-09-20T06:54:07.306Z,16.63
2018-09-20T06:56:36.540Z,16.75
2018-09-20T06:59:05.212Z,16.92
2018-09-20T07:01:34.240Z,16.90
2018-09-20T07:04:03.513Z,16.98
2018-09-20T07:06:33.041Z,17.32
2018-09-20T07:09:01.592Z,17.52
2018-09-20T07:11:31.945Z,17.72
2018-09-20T07:14:01.689Z,17.97
2018-09-20T07:16:32.337Z,18.15
2018-09-20T07:19:01.121Z,18.39
2018-09-20T07:21:31.530Z,18.52
2018-09-20T07:23:59.982Z,18.66
2018-09-20T07:26:30.804Z,18.74
2018-09-20T07:29:00.532Z,18.90
2018-09-20T07:31:30.329Z,19.10
2018-09-20T07:33:59.488Z,18.97
2018-09-20T07:36:28.509Z,19.11
2018-09-20T07:38:56.986Z,19.32
2018-09-20T07:41:26.370Z,19.43
2018-09-20T07:43:55.833Z,19.44
2018-09-20T07:46:24.585Z,19.42
2018-09-20T07:48:53.429Z,19.55
2018-09-20T07:51:22.986Z,19.75
2018-09-20T07:53:53.623Z,19.67
2018-09-20T07:56:22.086Z,19.95
2018-09-20T07:58:51.761Z,19.89
2018-09-20T08:01:20.747Z,20.04
2018-09-20T08:03:51.080Z,19.94
2018-09-20T08:06:20.706Z,19.84
2018-09-20T08:08:50.638Z,19.97
2018-09-20T08:11:19.493Z,20.17
2018-09-20T08:13:48.010Z,20.00
2018-09-20T08:16:17.308Z,20.23
2018-09-20T08:18:46.837Z,20.33
2018-09-20T08:21:15.284Z,20.51
2018-09-20T08:23:44.734Z,20.66
2018-09-20T08:26:13.541Z,20.90
2018-09-20T08:28:42.913Z,20.95
2018-09-20T08:31:12.626Z,21.14
2018-09-20T08:33:41.148Z,21.21
2018-09-20T08:36:10.388Z,21.40
2018-09-20T08:38:38.868Z,21.22
2018-09-20T08:41:07.505Z,21.24
2018-09-20T08:43:37.184Z,21.17
2018-09-20T08:46:05.905Z,21.60
2018-09-20T08:48:35.737Z,21.60
2018-09-20T08:51:05.931Z,21.80
2018-09-20T08:53:35.398Z,22.18
2018-09-20T08:56:03.878Z,22.00
2018-09-20T08:58:33.027Z,22.12
2018-09-20T09:01:04.341Z,22.22
2018-09-20T09:03:33.613Z,22.64
2018-09-20T09:06:02.352Z,22.94
2018-09-20T09:08:31.395Z,22.90
2018-09-20T09:11:00.881Z,22.83
2018-09-20T09:13:30.878Z,23.18
2018-09-20T09:15:59.598Z,22.54
2018-09-20T09:18:28.259Z,22.96
2018-09-20T09:20:57.081Z,23.25
2018-09-20T09:23:25.609Z,23.08
2018-09-20T09:25:55.007Z,23.27
2018-09-20T09:28:23.834Z,22.89
2018-09-20T09:30:52.293Z,23.09
2018-09-20T09:33:22.306Z,22.76
2018-09-20T09:35:51.966Z,23.04
2018-09-20T09:38:21.138Z,23.27
2018-09-20T09:40:49.611Z,23.38
2018-09-20T09:43:18.492Z,23.26
2018-09-20T09:45:47.022Z,23.19
2018-09-20T09:48:16.379Z,23.64
2018-09-20T09:50:45.824Z,23.99
2018-09-20T09:53:14.333Z,24.05
2018-09-20T09:55:44.137Z,24.25
2018-09-20T09:58:16.377Z,24.18
2018-09-20T10:00:44.864Z,23.74
2018-09-20T10:03:16.341Z,24.19
2018-09-20T10:05:45.157Z,24.28
2018-09-20T10:08:16.110Z,24.97
2018-09-20T10:10:45.542Z,25.24
2018-09-20T10:13:14.029Z,25.34
2018-09-20T10:15:43.190Z,24.59
2018-09-20T10:18:12.639Z,25.24
2018-09-20T10:20:41.383Z,25.32
2018-09-20T10:23:11.326Z,25.62
2018-09-20T10:25:39.824Z,25.62
2018-09-20T10:28:08.706Z,25.33
2018-09-20T10:30:37.158Z,25.15
2018-09-20T10:33:07.179Z,25.61
2018-09-20T10:35:36.847Z,26.15
2018-09-20T10:38:06.221Z,26.45
2018-09-20T10:40:36.598Z,26.74
2018-09-20T10:43:06.232Z,25.84
2018-09-20T10:45:36.149Z,26.59
2018-09-20T10:48:05.460Z,26.76
2018-09-20T10:50:35.577Z,26.85
2018-09-20T10:53:04.300Z,26.58
2018-09-20T10:55:38.681Z,25.99
2018-09-20T10:58:07.249Z,25.65
2018-09-20T11:00:35.759Z,25.79
2018-09-20T11:03:04.343Z,26.56
2018-09-20T11:05:33.634Z,27.03
2018-09-20T11:08:02.362Z,27.59
2018-09-20T11:10:32.015Z,28.19
2018-09-20T11:13:01.412Z,28.02
2018-09-20T11:15:30.257Z,26.63
2018-09-20T11:17:59.113Z,27.46
2018-09-20T11:20:29.129Z,27.19
2018-09-20T11:22:57.614Z,27.52
2018-09-20T11:25:27.122Z,27.86
2018-09-20T11:27:55.611Z,27.35
2018-09-20T11:30:24.313Z,27.94
2018-09-20T11:32:53.168Z,28.24
2018-09-20T11:35:22.706Z,27.75
2018-09-20T11:37:51.456Z,27.89
2018-09-20T11:40:20.604Z,28.03
2018-09-20T11:42:49.118Z,27.77
2018-09-20T11:45:17.918Z,28.18
2018-09-20T11:47:46.377Z,27.06
2018-09-20T11:50:16.814Z,27.36
2018-09-20T11:52:45.394Z,27.19
2018-09-20T11:55:15.148Z,27.44
2018-09-20T11:57:45.659Z,27.63
2018-09-20T12:00:15.354Z,27.61
2018-09-20T12:02:43.844Z,26.94
2018-09-20T12:05:12.616Z,27.32
2018-09-20T12:07:41.879Z,27.68
2018-09-20T12:10:11.297Z,27.89
2018-09-20T12:12:40.191Z,27.32
2018-09-20T12:15:09.293Z,28.13
2018-09-20T12:17:42.194Z,28.36
2018-09-20T12:20:11.896Z,28.35
2018-09-20T12:22:40.385Z,27.34
2018-09-20T12:25:08.870Z,27.72
2018-09-20T12:27:37.357Z,28.08
2018-09-20T12:30:06.786Z,28.03
2018-09-20T12:32:35.798Z,27.23
2018-09-20T12:35:05.190Z,28.00
2018-09-20T12:37:39.161Z,28.83
2018-09-20T12:40:09.444Z,28.84
2018-09-20T12:42:38.670Z,28.60
2018-09-20T12:45:08.072Z,28.12
2018-09-20T12:47:37.765Z,28.64
2018-09-20T12:50:06.719Z,29.49
2018-09-20T12:52:35.307Z,29.63
2018-09-20T12:55:04.021Z,28.08
2018-09-20T12:57:32.519Z,28.67
2018-09-20T13:00:00.987Z,28.76
2018-09-20T13:02:30.192Z,28.06
2018-09-20T13:04:58.880Z,29.34
2018-09-20T13:07:28.349Z,30.44
2018-09-20T13:09:56.805Z,30.38
2018-09-20T13:12:29.485Z,29.63
2018-09-20T13:14:58.226Z,29.83
2018-09-20T13:17:27.013Z,30.18
2018-09-20T13:19:56.509Z,29.61
2018-09-20T13:22:25.014Z,29.17
2018-09-20T13:24:53.754Z,29.07
2018-09-20T13:27:22.221Z,29.27
2018-09-20T13:29:50.750Z,28.58
2018-09-20T13:32:19.488Z,28.91
2018-09-20T13:34:48.829Z,29.21
2018-09-20T13:37:17.717Z,28.71
2018-09-20T13:39:47.390Z,28.30
2018-09-20T13:42:16.423Z,28.52
2018-09-20T13:44:44.942Z,29.49
2018-09-20T13:47:14.333Z,28.90
2018-09-20T13:49:42.888Z,28.78
2018-09-20T13:52:13.115Z,28.55
2018-09-20T13:54:41.680Z,28.84
2018-09-20T13:57:12.266Z,28.98
2018-09-20T13:59:41.484Z,29.56
2018-09-20T14:02:11.625Z,29.69
2018-09-20T14:04:40.565Z,28.65
2018-09-20T14:07:09.435Z,28.76
2018-09-20T14:09:37.957Z,29.70
2018-09-20T14:12:06.459Z,29.16
2018-09-20T14:14:35.991Z,28.63
2018-09-20T14:17:04.826Z,28.65
2018-09-20T14:19:34.732Z,29.34
2018-09-20T14:22:03.511Z,29.13
2018-09-20T14:24:32.152Z,29.12
2018-09-20T14:27:00.678Z,30.10
2018-09-20T14:29:30.529Z,29.53
2018-09-20T14:31:59.177Z,29.15
2018-09-20T14:34:28.373Z,29.92
2018-09-20T14:36:57.281Z,29.36
2018-09-20T14:39:26.042Z,29.36
2018-09-20T14:41:56.498Z,29.96
2018-09-20T14:45:09.153Z,29.73
2018-09-20T14:47:37.677Z,29.27
2018-09-20T14:50:07.902Z,30.01
2018-09-20T14:52:36.725Z,30.03
2018-09-20T14:55:06.689Z,30.04
2018-09-20T14:57:35.989Z,28.87
2018-09-20T15:00:05.521Z,29.16
2018-09-20T15:02:35.257Z,29.05
2018-09-20T15:05:05.592Z,28.87
2018-09-20T15:07:34.365Z,29.38
2018-09-20T15:10:03.257Z,30.37
2018-09-20T15:12:32.081Z,30.40
2018-09-20T15:15:01.747Z,29.77
2018-09-20T15:17:30.269Z,29.32
2018-09-20T15:19:59.749Z,28.75
2018-09-20T15:22:28.727Z,28.94
2018-09-20T15:24:58.146Z,28.88
2018-09-20T15:27:28.293Z,28.87
2018-09-20T15:29:57.130Z,29.08
2018-09-20T15:32:26.512Z,29.07
2018-09-20T15:34:55.819Z,28.98
2018-09-20T15:37:24.901Z,29.16
2018-09-20T15:39:54.123Z,29.16
2018-09-20T15:42:23.126Z,29.57
2018-09-20T15:44:53.090Z,29.95
2018-09-20T15:47:21.899Z,29.16
2018-09-20T15:49:54.009Z,29.90
2018-09-20T15:52:24.420Z,30.03
2018-09-20T15:54:53.889Z,29.25
2018-09-20T15:57:24.221Z,29.36
2018-09-20T15:59:53.623Z,29.38
2018-09-20T16:02:22.507Z,29.17
2018-09-20T16:04:51.606Z,29.32
2018-09-20T16:07:21.045Z,29.72
2018-09-20T16:09:50.065Z,29.50
2018-09-20T16:12:19.386Z,29.29
2018-09-20T16:14:49.012Z,30.30
2018-09-20T16:17:18.333Z,29.92
2018-09-20T16:19:49.984Z,29.87
2018-09-20T16:22:21.997Z,29.76
2018-09-20T16:24:52.222Z,30.36
2018-09-20T16:27:21.556Z,30.72
2018-09-20T16:30:32.375Z,30.40
2018-09-20T16:33:17.398Z,30.55
2018-09-20T16:35:53.821Z,30.56
2018-09-20T16:38:32.053Z,30.09
2018-09-20T16:41:02.834Z,29.81
2018-09-20T16:43:32.475Z,29.47
2018-09-20T16:46:02.558Z,30.03
2018-09-20T16:48:31.941Z,29.88
2018-09-20T16:51:01.792Z,29.56
2018-09-20T16:53:31.224Z,29.08
2018-09-20T16:56:01.189Z,28.72
2018-09-20T16:58:30.541Z,28.48
2018-09-20T17:01:00.876Z,28.11
2018-09-20T17:03:29.316Z,27.93
2018-09-20T17:05:58.471Z,27.55
2018-09-20T17:08:27.750Z,27.51
2018-09-20T17:10:56.703Z,27.57
2018-09-20T17:13:26.409Z,27.21
2018-09-20T17:15:55.441Z,26.93
2018-09-20T17:18:23.907Z,26.85
2018-09-20T17:20:52.702Z,26.69
2018-09-20T17:23:24.969Z,26.65
2018-09-20T17:25:54.492Z,26.68
2018-09-20T17:28:23.592Z,26.66
2018-09-20T17:30:53.044Z,26.68
2018-09-20T17:33:23.664Z,26.50
2018-09-20T17:35:52.808Z,26.39
2018-09-20T17:38:23.027Z,26.30
2018-09-20T17:40:55.562Z,26.28
2018-09-20T17:43:29.556Z,26.18
2018-09-20T17:45:58.480Z,26.17
2018-09-20T17:48:27.174Z,25.99
2018-09-20T17:50:56.328Z,26.05
2018-09-20T17:53:25.840Z,25.96
2018-09-20T17:55:55.115Z,25.82
2018-09-20T17:58:25.561Z,25.80
2018-09-20T18:00:54.969Z,25.89
2018-09-20T18:03:24.049Z,25.79
2018-09-20T18:05:52.981Z,25.65
2018-09-20T18:08:21.808Z,25.61
2018-09-20T18:10:50.906Z,25.62
2018-09-20T18:13:19.940Z,25.54
2018-09-20T18:15:49.185Z,25.52
2018-09-20T18:18:18.030Z,25.44
2018-09-20T18:23:15.537Z,25.24
2018-09-20T18:25:44.501Z,25.21
2018-09-20T18:28:13.158Z,25.20
2018-09-20T18:30:41.822Z,25.04
2018-09-20T18:33:11.156Z,25.04
2018-09-20T18:35:40.147Z,24.97
2018-09-20T18:38:08.941Z,24.98
2018-09-20T18:40:38.544Z,24.94
2018-09-20T18:43:07.423Z,24.98
2018-09-20T18:45:36.691Z,24.92
2018-09-20T18:48:06.196Z,24.88
2018-09-20T18:50:35.706Z,24.75
2018-09-20T18:53:04.429Z,24.67
2018-09-20T18:55:34.352Z,24.62
2018-09-20T18:58:02.761Z,24.60
2018-09-20T19:00:32.609Z,24.33
2018-09-20T19:03:01.505Z,24.02
2018-09-20T19:05:30.633Z,24.07
2018-09-20T19:08:00.154Z,23.80
2018-09-20T19:10:29.082Z,23.92
2018-09-20T19:12:58.912Z,24.02
2018-09-20T19:15:28.111Z,24.03
2018-09-20T19:17:56.792Z,24.08
2018-09-20T19:20:25.533Z,24.18
2018-09-20T19:22:54.373Z,24.28
2018-09-20T19:25:23.437Z,24.36
2018-09-20T19:27:53.026Z,24.29
2018-09-20T19:30:22.189Z,24.20
2018-09-20T19:32:51.696Z,24.21
2018-09-20T19:35:20.405Z,24.11
2018-09-20T19:37:49.305Z,24.17
2018-09-20T19:40:18.314Z,24.06
2018-09-20T19:42:47.199Z,23.98
2018-09-20T19:45:16.865Z,23.98
2018-09-20T19:47:45.770Z,23.79
2018-09-20T19:50:15.656Z,23.81
2018-09-20T19:52:44.127Z,23.75
2018-09-20T19:55:14.550Z,23.69
2018-09-20T19:57:43.856Z,23.62
2018-09-20T20:00:14.128Z,23.49
2018-09-20T20:02:43.607Z,23.34
2018-09-20T20:05:13.468Z,23.21
2018-09-20T20:07:43.388Z,23.05
2018-09-20T20:10:11.844Z,23.06
2018-09-20T20:12:40.844Z,22.93
2018-09-20T20:15:09.352Z,22.83
2018-09-20T20:17:41.720Z,22.80
2018-09-20T20:20:10.846Z,22.65
2018-09-20T20:22:39.804Z,22.47
2018-09-20T20:25:10.294Z,22.20
2018-09-20T20:27:40.045Z,22.14
2018-09-20T20:30:09.860Z,21.96
2018-09-20T20:32:39.011Z,21.88
2018-09-20T20:35:08.137Z,21.94
2018-09-20T20:37:36.966Z,22.13
2018-09-20T20:40:06.417Z,22.18
2018-09-20T20:42:35.262Z,22.18
2018-09-20T20:45:04.578Z,22.41
2018-09-20T20:47:34.302Z,22.45
2018-09-20T20:50:03.815Z,22.22
2018-09-20T20:52:33.573Z,22.49
2018-09-20T20:55:02.452Z,22.56
2018-09-20T20:57:31.828Z,22.50
2018-09-20T21:00:01.528Z,22.57
2018-09-20T21:02:30.353Z,22.49
2018-09-20T21:04:59.591Z,22.51
2018-09-20T21:07:28.282Z,22.64
2018-09-20T21:09:57.388Z,22.67
2018-09-20T21:12:25.901Z,22.57
2018-09-20T21:14:55.321Z,22.60
2018-09-20T21:17:24.730Z,22.45
2018-09-20T21:19:53.833Z,22.46
2018-09-20T21:22:23.188Z,22.44
2018-09-20T21:24:52.201Z,22.44
2018-09-20T21:27:20.691Z,22.39
2018-09-20T21:29:49.504Z,22.40
2018-09-20T21:32:18.613Z,22.37
2018-09-20T21:34:48.094Z,22.29
2018-09-20T21:37:17.246Z,22.18
2018-09-20T21:39:46.094Z,22.13
2018-09-20T21:42:14.633Z,21.87
2018-09-20T21:44:43.504Z,21.87
2018-09-20T21:47:12.013Z,21.87
2018-09-20T21:49:41.768Z,21.90
2018-09-20T21:52:10.572Z,21.92
2018-09-20T21:54:40.479Z,21.95
2018-09-20T21:57:09.749Z,21.64
2018-09-20T21:59:39.255Z,21.72
2018-09-20T22:02:07.793Z,21.66
2018-09-20T22:04:36.948Z,21.74
2018-09-20T22:07:07.153Z,21.66
2018-09-20T22:09:36.457Z,21.65
2018-09-20T22:12:06.098Z,21.50
2018-09-20T22:14:35.489Z,21.42
2018-09-20T22:17:04.570Z,21.55
2018-09-20T22:19:34.191Z,21.56
2018-09-20T22:22:03.085Z,21.53
2018-09-20T22:24:32.025Z,21.39
2018-09-20T22:27:01.239Z,21.47
2018-09-20T22:29:30.657Z,21.49
2018-09-20T22:31:59.665Z,21.41
2018-09-20T22:34:28.149Z,21.22
2018-09-20T22:36:58.025Z,21.20
2018-09-20T22:39:27.599Z,21.25
2018-09-20T22:41:57.299Z,21.19
2018-09-20T22:44:26.204Z,21.07
2018-09-20T22:46:55.658Z,20.91
2018-09-20T22:49:25.411Z,20.92
2018-09-20T22:51:54.592Z,20.75
2018-09-20T22:54:23.172Z,20.61
2018-09-20T22:56:52.581Z,20.62
2018-09-20T22:59:23.027Z,20.69
2018-09-20T23:01:53.085Z,20.54
2018-09-20T23:04:21.849Z,20.51
2018-09-20T23:06:50.963Z,20.59
2018-09-20T23:09:19.696Z,20.63
2018-09-20T23:11:48.405Z,20.55
2018-09-20T23:14:17.108Z,20.58
2018-09-20T23:16:45.912Z,20.57
2018-09-20T23:19:15.213Z,20.46
2018-09-20T23:21:44.026Z,20.49
2018-09-20T23:24:13.818Z,20.47
2018-09-20T23:26:42.732Z,20.33
2018-09-20T23:29:11.965Z,20.28
2018-09-20T23:31:41.485Z,20.24
2018-09-20T23:34:10.936Z,20.44
2018-09-20T23:36:39.741Z,20.41
2018-09-20T23:39:10.152Z,20.35
2018-09-20T23:41:40.041Z,20.45
2018-09-20T23:44:09.604Z,20.40
2018-09-20T23:46:39.415Z,20.43
2018-09-20T23:49:09.113Z,20.43
2018-09-20T23:51:39.013Z,20.23
2018-09-20T23:54:08.267Z,20.34
2018-09-20T23:56:36.708Z,20.26
2018-09-20T23:59:07.150Z,20.28
